createdAt,value
2019-03-08T00:02:09.155Z,59.44
2019-03-08T00:04:39.667Z,59.86
2019-03-08T00:07:12.074Z,60.57
2019-03-08T00:09:43.321Z,61.31
2019-03-08T00:12:16.005Z,62.01
2019-03-08T00:14:46.501Z,62.17
2019-03-08T00:17:18.407Z,62.42
2019-03-08T00:19:49.753Z,62.33
2019-03-08T00:22:19.993Z,61.90
2019-03-08T00:24:50.620Z,61.07
2019-03-08T00:27:23.918Z,61.18
2019-03-08T00:29:56.593Z,60.71
2019-03-08T00:32:28.659Z,59.89
2019-03-08T00:34:59.421Z,59.98
2019-03-08T00:37:29.779Z,60.11
2019-03-08T00:40:01.435Z,59.67
2019-03-08T00:42:33.667Z,59.74
2019-03-08T00:45:05.124Z,59.45
2019-03-08T00:47:35.749Z,60.08
2019-03-08T00:50:08.406Z,60.27
2019-03-08T00:52:38.654Z,60.13
2019-03-08T00:55:09.225Z,59.99
2019-03-08T00:57:40.885Z,60.33
2019-03-08T01:00:15.320Z,60.10
2019-03-08T01:02:46.369Z,60.58
2019-03-08T01:05:18.137Z,60.47
2019-03-08T01:07:49.967Z,60.87
2019-03-08T01:10:22.563Z,61.18
2019-03-08T01:12:53.655Z,61.45
2019-03-08T01:15:24.998Z,61.90
2019-03-08T01:17:55.690Z,61.91
2019-03-08T01:20:25.943Z,62.28
2019-03-08T01:22:56.311Z,62.76
2019-03-08T01:25:26.867Z,62.78
2019-03-08T01:28:04.976Z,63.33
2019-03-08T01:30:38.036Z,62.72
2019-03-08T01:33:08.938Z,62.91
2019-03-08T01:35:39.622Z,63.33
2019-03-08T01:38:12.508Z,63.55
2019-03-08T01:40:43.012Z,63.85
2019-03-08T01:43:13.603Z,64.14
2019-03-08T01:45:45.334Z,64.61
2019-03-08T01:48:15.762Z,64.87
2019-03-08T01:50:47.000Z,64.95
2019-03-08T01:53:17.555Z,65.10
2019-03-08T01:55:48.081Z,64.90
2019-03-08T01:58:19.561Z,65.11
2019-03-08T02:00:51.708Z,65.21
2019-03-08T02:03:22.170Z,65.15
2019-03-08T02:05:54.210Z,65.17
2019-03-08T02:08:24.639Z,64.88
2019-03-08T02:10:55.483Z,64.96
2019-03-08T02:13:28.675Z,64.85
2019-03-08T02:16:00.946Z,65.16
2019-03-08T02:18:33.791Z,64.73
2019-03-08T02:21:07.286Z,65.07
2019-03-08T02:23:37.292Z,65.29
2019-03-08T02:26:15.562Z,65.68
2019-03-08T02:28:47.329Z,65.43
2019-03-08T02:31:17.652Z,65.71
2019-03-08T02:33:49.209Z,66.13
2019-03-08T02:36:20.875Z,66.03
2019-03-08T02:38:51.206Z,66.42
2019-03-08T02:41:21.534Z,66.20
2019-03-08T02:43:51.917Z,66.27
2019-03-08T02:46:22.283Z,66.25
2019-03-08T02:48:54.660Z,66.55
2019-03-08T02:51:26.937Z,66.84
2019-03-08T02:53:57.380Z,66.67
2019-03-08T02:56:28.961Z,66.91
2019-03-08T02:58:59.501Z,66.58
2019-03-08T03:01:30.651Z,66.71
2019-03-08T03:04:00.959Z,67.32
2019-03-08T03:06:33.203Z,67.03
2019-03-08T03:09:06.088Z,67.26
2019-03-08T03:11:36.650Z,67.11
2019-03-08T03:14:07.357Z,67.32
2019-03-08T03:16:38.016Z,67.22
2019-03-08T03:19:09.828Z,67.63
2019-03-08T03:21:40.185Z,67.79
2019-03-08T03:24:11.536Z,68.34
2019-03-08T03:26:42.171Z,68.88
2019-03-08T03:29:14.447Z,68.88
2019-03-08T03:31:47.045Z,69.20
2019-03-08T03:34:17.287Z,69.45
2019-03-08T03:36:47.590Z,69.92
2019-03-08T03:39:17.929Z,70.42
2019-03-08T03:41:49.365Z,71.46
2019-03-08T03:44:21.329Z,72.22
2019-03-08T03:46:54.527Z,73.40
2019-03-08T03:49:24.955Z,74.27
2019-03-08T03:51:55.595Z,74.63
2019-03-08T03:54:27.145Z,75.09
2019-03-08T03:56:57.422Z,76.09
2019-03-08T03:59:28.934Z,76.61
2019-03-08T04:02:01.103Z,77.02
2019-03-08T04:04:31.517Z,77.53
2019-03-08T04:07:04.627Z,78.82
2019-03-08T04:09:35.377Z,79.29
2019-03-08T04:12:07.121Z,79.10
2019-03-08T04:14:37.571Z,79.80
2019-03-08T04:17:09.628Z,79.37
2019-03-08T04:19:40.269Z,78.86
2019-03-08T04:22:11.624Z,78.75
2019-03-08T04:24:43.881Z,78.10
2019-03-08T04:27:15.164Z,78.04
2019-03-08T04:29:45.869Z,78.00
2019-03-08T04:32:16.299Z,77.86
2019-03-08T04:34:47.864Z,76.22
2019-03-08T04:37:18.184Z,76.64
2019-03-08T04:39:50.361Z,75.51
2019-03-08T04:42:23.550Z,74.90
2019-03-08T04:44:55.415Z,74.13
2019-03-08T04:47:25.636Z,74.53
2019-03-08T04:49:57.200Z,74.60
2019-03-08T04:52:27.420Z,74.47
2019-03-08T04:54:58.065Z,74.58
2019-03-08T04:57:29.267Z,74.95
2019-03-08T04:59:59.864Z,75.41
2019-03-08T05:02:30.297Z,75.30
2019-03-08T05:05:03.307Z,75.63
2019-03-08T05:07:34.913Z,76.38
2019-03-08T05:10:07.761Z,76.71
2019-03-08T05:12:40.895Z,76.06
2019-03-08T05:15:11.611Z,75.57
2019-03-08T05:17:42.217Z,74.84
2019-03-08T05:20:12.623Z,74.94
2019-03-08T05:22:44.255Z,74.75
2019-03-08T05:25:15.081Z,74.58
2019-03-08T05:27:47.985Z,74.39
2019-03-08T05:30:18.969Z,73.87
2019-03-08T05:32:50.971Z,73.87
2019-03-08T05:35:22.374Z,73.74
2019-03-08T05:37:54.411Z,73.56
2019-03-08T05:40:25.971Z,73.53
2019-03-08T05:42:56.196Z,73.72
2019-03-08T05:45:26.525Z,73.87
2019-03-08T05:47:57.162Z,74.00
2019-03-08T05:50:28.822Z,74.28
2019-03-08T05:52:59.537Z,73.76
2019-03-08T05:55:29.682Z,73.77
2019-03-08T05:57:59.765Z,73.79
2019-03-08T06:00:32.861Z,74.14
2019-03-08T06:03:03.232Z,73.52
2019-03-08T06:05:34.579Z,73.47
2019-03-08T06:08:06.747Z,73.36
2019-03-08T06:10:39.123Z,73.41
2019-03-08T06:13:10.584Z,73.08
2019-03-08T06:15:41.214Z,72.98
2019-03-08T06:18:13.084Z,72.65
2019-03-08T06:20:45.351Z,73.14
2019-03-08T06:23:16.197Z,72.62
2019-03-08T06:25:46.825Z,72.92
2019-03-08T06:28:17.460Z,72.46
2019-03-08T06:30:47.893Z,72.21
2019-03-08T06:33:19.650Z,72.15
2019-03-08T06:35:50.900Z,71.70
2019-03-08T06:38:22.517Z,72.60
2019-03-08T06:40:55.855Z,72.31
2019-03-08T06:43:26.188Z,72.03
2019-03-08T06:45:56.822Z,71.84
2019-03-08T06:48:30.016Z,71.92
2019-03-08T06:51:01.367Z,72.00
2019-03-08T06:53:31.881Z,72.29
2019-03-08T06:56:03.270Z,72.26
2019-03-08T06:58:43.244Z,72.45
2019-03-08T07:01:18.888Z,72.90
2019-03-08T07:03:49.390Z,73.39
2019-03-08T07:06:21.499Z,75.10
2019-03-08T07:08:51.779Z,75.28
2019-03-08T07:11:22.263Z,75.75
2019-03-08T07:13:54.173Z,76.41
2019-03-08T07:16:24.615Z,77.03
2019-03-08T07:18:54.992Z,77.82
2019-03-08T07:21:38.668Z,77.52
2019-03-08T07:24:28.135Z,77.80
2019-03-08T07:27:34.076Z,78.07
2019-03-08T07:30:27.125Z,79.20
2019-03-08T07:33:33.579Z,79.40
2019-03-08T07:36:17.716Z,79.28
2019-03-08T07:39:06.363Z,78.70
2019-03-08T07:41:53.789Z,77.83
2019-03-08T07:44:36.418Z,77.08
2019-03-08T07:47:35.269Z,76.52
2019-03-08T07:50:30.467Z,75.70
2019-03-08T07:56:14.917Z,75.46
2019-03-08T07:59:24.953Z,75.76
2019-03-08T08:02:05.619Z,75.50
2019-03-08T08:05:04.087Z,75.90
2019-03-08T08:07:46.490Z,75.66
2019-03-08T08:10:28.797Z,77.58
2019-03-08T08:13:27.994Z,77.91
2019-03-08T08:16:07.939Z,77.94
2019-03-08T08:19:04.963Z,79.70
2019-03-08T08:21:50.134Z,80.23
2019-03-08T08:24:31.100Z,79.53
2019-03-08T08:27:36.331Z,79.02
2019-03-08T08:30:22.239Z,78.55
2019-03-08T08:33:32.859Z,78.46
2019-03-08T08:36:23.246Z,78.14
2019-03-08T08:39:10.255Z,77.32
2019-03-08T08:42:09.443Z,76.86
2019-03-08T08:45:03.921Z,76.29
2019-03-08T08:48:10.172Z,76.28
2019-03-08T08:51:01.682Z,76.99
2019-03-08T08:54:05.677Z,76.95
2019-03-08T08:56:55.961Z,77.12
2019-03-08T09:00:03.539Z,79.89
2019-03-08T09:02:56.179Z,81.61
2019-03-08T09:05:38.375Z,81.96
2019-03-08T09:08:37.286Z,83.51
2019-03-08T09:11:22.938Z,84.68
2019-03-08T09:14:07.706Z,85.59
2019-03-08T09:17:06.065Z,85.46
2019-03-08T09:20:07.915Z,85.12
2019-03-08T09:22:54.260Z,83.79
2019-03-08T09:25:45.506Z,84.40
2019-03-08T09:28:32.310Z,84.18
2019-03-08T09:31:25.114Z,83.27
2019-03-08T09:34:18.709Z,83.45
2019-03-08T09:37:11.758Z,81.40
2019-03-08T09:40:19.437Z,81.01
2019-03-08T09:43:12.279Z,81.16
2019-03-08T09:46:03.791Z,80.41
2019-03-08T09:48:48.819Z,79.53
2019-03-08T09:51:46.917Z,77.17
2019-03-08T09:54:57.975Z,75.94
2019-03-08T09:57:44.883Z,74.18
2019-03-08T10:00:28.616Z,72.37
2019-03-08T10:03:12.978Z,71.28
2019-03-08T10:06:06.319Z,69.12
2019-03-08T10:09:01.717Z,69.73
2019-03-08T10:11:49.444Z,70.02
2019-03-08T10:14:52.625Z,69.60
2019-03-08T10:17:45.975Z,69.25
2019-03-08T10:20:35.233Z,69.74
2019-03-08T10:23:28.997Z,68.45
2019-03-08T10:26:25.015Z,68.29
2019-03-08T10:29:20.619Z,67.79
2019-03-08T10:32:19.498Z,66.51
2019-03-08T10:35:23.427Z,65.23
2019-03-08T10:38:01.395Z,64.07
2019-03-08T10:40:56.900Z,65.20
2019-03-08T10:46:47.494Z,64.95
2019-03-08T10:49:30.313Z,63.93
2019-03-08T10:52:26.753Z,62.91
2019-03-08T10:55:18.756Z,61.09
2019-03-08T10:58:19.804Z,61.48
2019-03-08T11:01:18.562Z,61.66
2019-03-08T11:04:09.664Z,60.10
2019-03-08T11:07:11.820Z,59.12
2019-03-08T11:09:56.275Z,59.68
2019-03-08T11:12:43.893Z,57.60
2019-03-08T11:15:31.009Z,57.19
2019-03-08T11:18:15.968Z,57.58
2019-03-08T11:21:15.159Z,58.22
2019-03-08T11:24:20.889Z,59.15
2019-03-08T11:27:12.603Z,59.73
2019-03-08T11:30:12.708Z,61.99
2019-03-08T11:32:52.902Z,61.98
2019-03-08T11:35:54.507Z,63.05
2019-03-08T11:38:36.502Z,63.67
2019-03-08T11:41:29.138Z,64.04
2019-03-08T11:44:39.174Z,64.60
2019-03-08T11:47:36.215Z,63.81
2019-03-08T11:50:28.037Z,63.28
2019-03-08T11:53:20.871Z,63.18
2019-03-08T11:56:11.770Z,63.42
2019-03-08T11:59:05.223Z,63.27
2019-03-08T12:01:56.737Z,62.52
2019-03-08T12:04:53.158Z,61.90
2019-03-08T12:07:47.292Z,61.79
2019-03-08T12:10:39.972Z,61.84
2019-03-08T12:13:32.288Z,61.87
2019-03-08T12:16:34.044Z,62.11
2019-03-08T12:19:26.789Z,62.06
2019-03-08T12:22:17.682Z,63.09
2019-03-08T12:25:01.549Z,59.95
2019-03-08T12:28:00.193Z,56.48
2019-03-08T12:30:57.131Z,55.82
2019-03-08T12:33:49.770Z,55.61
2019-03-08T12:36:51.612Z,54.56
2019-03-08T12:39:41.592Z,52.92
2019-03-08T12:42:44.672Z,53.17
2019-03-08T12:45:37.814Z,52.44
2019-03-08T12:48:29.019Z,52.75
2019-03-08T12:51:27.183Z,52.19
2019-03-08T12:54:25.855Z,52.76
2019-03-08T12:57:24.746Z,51.91
2019-03-08T13:00:21.058Z,53.21
2019-03-08T13:03:32.319Z,53.36
2019-03-08T13:06:14.620Z,53.33
2019-03-08T13:09:09.936Z,53.17
2019-03-08T13:11:44.341Z,52.22
2019-03-08T13:14:18.457Z,52.04
2019-03-08T13:16:52.130Z,51.49
2019-03-08T13:19:27.749Z,52.15
2019-03-08T13:22:01.722Z,52.24
2019-03-08T13:24:35.478Z,51.87
2019-03-08T13:27:10.436Z,51.27
2019-03-08T13:29:44.883Z,51.68
2019-03-08T13:32:20.432Z,52.09
2019-03-08T13:34:55.673Z,52.74
2019-03-08T13:37:29.695Z,53.40
2019-03-08T13:40:03.796Z,53.24
2019-03-08T13:42:37.711Z,53.22
2019-03-08T13:45:15.515Z,53.30
2019-03-08T13:47:49.217Z,53.38
2019-03-08T13:50:23.104Z,53.93
2019-03-08T13:53:00.391Z,54.36
2019-03-08T13:55:34.169Z,54.88
2019-03-08T13:58:07.858Z,54.95
2019-03-08T14:00:41.736Z,53.72
2019-03-08T14:03:15.670Z,54.20
2019-03-08T14:05:49.396Z,54.20
2019-03-08T14:08:24.936Z,53.35
2019-03-08T14:10:58.834Z,54.00
2019-03-08T14:13:32.953Z,53.78
2019-03-08T14:16:06.664Z,53.49
2019-03-08T14:18:40.338Z,53.59
2019-03-08T14:21:14.487Z,53.94
2019-03-08T14:23:48.318Z,53.91
2019-03-08T14:26:22.464Z,52.90
2019-03-08T14:28:59.046Z,53.33
2019-03-08T14:32:06.829Z,52.55
2019-03-08T14:34:40.637Z,53.34
2019-03-08T14:37:19.557Z,52.76
2019-03-08T14:39:52.168Z,51.70
2019-03-08T14:42:36.989Z,50.79
2019-03-08T14:45:19.446Z,52.10
2019-03-08T14:47:55.781Z,51.78
2019-03-08T14:50:31.858Z,51.25
2019-03-08T14:53:05.752Z,50.31
2019-03-08T14:55:39.862Z,50.49
2019-03-08T14:58:13.702Z,51.07
2019-03-08T15:00:47.472Z,50.12
2019-03-08T15:03:23.754Z,50.11
2019-03-08T15:05:59.597Z,51.58
2019-03-08T15:08:35.751Z,51.52
2019-03-08T15:11:09.966Z,51.32
2019-03-08T15:13:44.415Z,52.38
2019-03-08T15:16:18.347Z,51.23
2019-03-08T15:18:52.108Z,51.86
2019-03-08T15:21:26.098Z,51.68
2019-03-08T15:24:00.340Z,50.79
2019-03-08T15:26:35.865Z,51.18
2019-03-08T15:29:10.795Z,50.62
2019-03-08T15:31:45.792Z,50.52
2019-03-08T15:34:21.460Z,50.14
2019-03-08T15:36:56.879Z,49.85
2019-03-08T15:39:30.741Z,49.53
2019-03-08T15:42:04.737Z,49.28
2019-03-08T15:44:38.563Z,49.49
2019-03-08T15:47:23.038Z,49.77
2019-03-08T15:49:49.265Z,50.97
2019-03-08T15:52:25.158Z,50.31
2019-03-08T15:54:59.301Z,50.33
2019-03-08T15:57:33.145Z,51.18
2019-03-08T16:00:15.556Z,51.12
2019-03-08T16:02:50.677Z,51.97
2019-03-08T16:05:28.462Z,52.65
2019-03-08T16:08:03.766Z,52.91
2019-03-08T16:10:39.478Z,52.74
2019-03-08T16:13:14.348Z,52.65
2019-03-08T16:15:48.549Z,52.21
2019-03-08T16:18:22.150Z,51.77
2019-03-08T16:20:56.464Z,52.70
2019-03-08T16:23:30.259Z,53.52
2019-03-08T16:26:05.089Z,54.51
2019-03-08T16:28:39.534Z,54.13
2019-03-08T16:31:50.251Z,54.87
2019-03-08T16:34:24.075Z,55.62
2019-03-08T16:37:14.188Z,56.63
2019-03-08T16:39:56.389Z,57.05
2019-03-08T16:43:03.736Z,56.09
2019-03-08T16:45:44.669Z,56.23
2019-03-08T16:48:29.140Z,56.51
2019-03-08T16:51:14.824Z,56.17
2019-03-08T16:53:54.579Z,57.09
2019-03-08T16:56:56.750Z,58.13
2019-03-08T17:00:02.498Z,59.03
2019-03-08T17:02:54.173Z,59.93
2019-03-08T17:05:54.497Z,64.06
2019-03-08T17:08:49.576Z,68.28
2019-03-08T17:11:46.624Z,72.25
2019-03-08T17:14:49.285Z,73.77
2019-03-08T17:17:40.647Z,73.20
2019-03-08T17:20:37.833Z,72.28
2019-03-08T17:23:26.895Z,72.78
2019-03-08T17:26:25.383Z,72.19
2019-03-08T17:29:15.229Z,72.14
2019-03-08T17:32:07.889Z,73.37
2019-03-08T17:35:01.526Z,73.88
2019-03-08T17:37:48.128Z,72.62
2019-03-08T17:40:33.303Z,73.18
2019-03-08T17:43:25.930Z,73.60
2019-03-08T17:46:21.334Z,73.55
2019-03-08T17:49:08.651Z,75.03
2019-03-08T17:52:00.571Z,74.00
2019-03-08T17:54:53.821Z,75.19
2019-03-08T17:57:37.046Z,74.75
2019-03-08T18:00:38.175Z,74.83
2019-03-08T18:03:29.277Z,74.48
2019-03-08T18:06:22.544Z,74.59
2019-03-08T18:09:34.714Z,74.12
2019-03-08T18:12:30.420Z,73.55
2019-03-08T18:15:15.384Z,73.99
2019-03-08T18:18:11.293Z,73.75
2019-03-08T18:21:04.341Z,74.12
2019-03-08T18:23:57.797Z,73.68
2019-03-08T18:26:52.277Z,74.33
2019-03-08T18:29:37.751Z,74.69
2019-03-08T18:32:30.692Z,75.04
2019-03-08T18:35:23.538Z,74.77
2019-03-08T18:38:19.057Z,74.92
2019-03-08T18:41:12.392Z,74.95
2019-03-08T18:44:15.060Z,75.57
2019-03-08T18:47:09.653Z,75.64
2019-03-08T18:49:50.599Z,75.87
2019-03-08T18:52:55.824Z,76.01
2019-03-08T18:55:50.108Z,76.08
2019-03-08T18:58:57.997Z,75.96
2019-03-08T19:01:52.855Z,76.09
2019-03-08T19:04:48.300Z,76.56
2019-03-08T19:07:47.166Z,76.75
2019-03-08T19:10:38.681Z,76.50
2019-03-08T19:13:22.107Z,76.56
2019-03-08T19:16:11.773Z,75.77
2019-03-08T19:18:57.451Z,75.67
2019-03-08T19:21:49.892Z,75.62
2019-03-08T19:24:45.596Z,75.45
2019-03-08T19:27:31.161Z,75.57
2019-03-08T19:30:22.986Z,74.76
2019-03-08T19:33:02.636Z,74.62
2019-03-08T19:35:58.338Z,73.55
2019-03-08T19:38:47.596Z,73.23
2019-03-08T19:41:46.680Z,73.04
2019-03-08T19:44:38.134Z,72.84
2019-03-08T19:47:39.834Z,72.60
2019-03-08T19:50:38.416Z,72.29
2019-03-08T19:53:23.474Z,72.51
2019-03-08T19:56:16.756Z,72.60
2019-03-08T19:59:11.203Z,72.33
2019-03-08T20:02:07.015Z,72.55
2019-03-08T20:04:51.471Z,72.72
2019-03-08T20:07:45.438Z,72.96
2019-03-08T20:10:33.711Z,73.21
2019-03-08T20:13:30.400Z,73.70
2019-03-08T20:16:27.127Z,73.60
2019-03-08T20:19:36.862Z,72.99
2019-03-08T20:22:35.856Z,72.85
2019-03-08T20:25:32.060Z,73.30
2019-03-08T20:28:21.931Z,73.06
2019-03-08T20:31:20.823Z,73.64
2019-03-08T20:34:10.687Z,73.71
2019-03-08T20:37:04.345Z,73.69
2019-03-08T20:39:50.640Z,74.50
2019-03-08T20:42:42.051Z,74.72
2019-03-08T20:45:40.422Z,75.34
2019-03-08T20:48:16.644Z,76.11
2019-03-08T20:50:50.910Z,75.96
2019-03-08T20:53:26.606Z,76.19
2019-03-08T20:56:02.300Z,76.21
2019-03-08T20:58:37.438Z,76.16
2019-03-08T21:01:12.510Z,75.97
2019-03-08T21:03:50.849Z,75.95
2019-03-08T21:06:26.268Z,75.82
2019-03-08T21:09:01.061Z,76.04
2019-03-08T21:11:35.378Z,75.85
2019-03-08T21:14:11.821Z,75.65
2019-03-08T21:16:47.468Z,75.58
2019-03-08T21:19:21.599Z,75.25
2019-03-08T21:21:55.900Z,75.41
2019-03-08T21:24:30.988Z,75.17
2019-03-08T21:27:05.420Z,75.25
2019-03-08T21:29:40.533Z,74.48
2019-03-08T21:32:14.438Z,74.57
2019-03-08T21:34:48.158Z,74.39
2019-03-08T21:37:24.297Z,74.29
2019-03-08T21:39:57.969Z,74.53
2019-03-08T21:42:31.706Z,73.77
2019-03-08T21:45:07.275Z,73.68
2019-03-08T21:47:41.997Z,73.85
2019-03-08T21:50:16.727Z,73.70
2019-03-08T21:52:51.824Z,73.25
2019-03-08T21:55:25.667Z,72.87
2019-03-08T21:57:59.634Z,73.11
2019-03-08T22:00:34.513Z,73.25
2019-03-08T22:03:10.480Z,72.31
2019-03-08T22:05:45.025Z,72.61
2019-03-08T22:08:19.357Z,72.15
2019-03-08T22:11:10.678Z,71.77
2019-03-08T22:13:44.610Z,71.64
2019-03-08T22:16:18.603Z,71.95
2019-03-08T22:18:52.268Z,71.44
2019-03-08T22:21:26.076Z,71.60
2019-03-08T22:23:59.699Z,71.93
2019-03-08T22:26:33.578Z,72.08
2019-03-08T22:29:09.531Z,72.36
2019-03-08T22:31:43.595Z,73.43
2019-03-08T22:34:17.305Z,73.09
2019-03-08T22:36:51.469Z,72.36
2019-03-08T22:39:25.078Z,72.67
2019-03-08T22:41:58.982Z,73.18
2019-03-08T22:44:32.712Z,72.88
2019-03-08T22:47:06.325Z,72.82
2019-03-08T22:49:40.042Z,73.08
2019-03-08T22:52:13.803Z,72.25
2019-03-08T22:54:47.750Z,72.68
2019-03-08T22:57:22.962Z,72.22
2019-03-08T22:59:57.204Z,72.37
2019-03-08T23:02:31.150Z,72.02
2019-03-08T23:05:05.135Z,72.16
2019-03-08T23:07:39.409Z,72.06
2019-03-08T23:10:14.431Z,72.04
2019-03-08T23:12:48.918Z,71.82
2019-03-08T23:15:22.939Z,71.71
2019-03-08T23:17:58.633Z,71.42
2019-03-08T23:20:32.636Z,71.56
2019-03-08T23:23:07.418Z,71.12
2019-03-08T23:25:41.350Z,71.24
2019-03-08T23:28:32.903Z,71.05
2019-03-08T23:31:19.381Z,70.69
2019-03-08T23:33:56.393Z,70.72
2019-03-08T23:36:31.720Z,70.91
2019-03-08T23:39:09.102Z,71.06
2019-03-08T23:41:47.523Z,70.95
2019-03-08T23:44:21.139Z,71.05
2019-03-08T23:46:54.993Z,71.53
2019-03-08T23:49:28.841Z,71.38
2019-03-08T23:52:05.929Z,71.63
2019-03-08T23:54:41.369Z,71.37
2019-03-08T23:57:15.182Z,71.99
2019-03-08T23:59:50.144Z,71.84
